Lakeland Linder Regional Airport
KLAL : rendu visible

Aérodrome :











RETROUVEZ-NOUS SUR...

 
LOGIN :

S'inscrire | Disclaimer

   EN    FR    IT 

 









Légende :    VFR   VFR Marginal   IFR   IFR Intensif   IFR Très Intensif
Visi : 
Plafond : 
>= 8 km
>= 3000ft
5 à 8 km
1000 à 3000 ft
1500m à 5 km
500 à 1000 ft
800 à 1500m
200 à 500 ft
< 800m
< 200 ft
Symboles :   Orages  Brouillard  Fortes neiges  Fortes précipitations  Vent > 20 kt






- Altitude de l'aérodrome : 142 ft


KLAL - Lakeland Linder Regional

DERNIER METAR :
  • 221647Z 03010G18KT 10SM SKC 17/08 A3032

METARs EXPIRÉS :
  • 221550Z 02009KT 10SM SKC 14/08 A3033
  • 221450Z 02011G15KT 10SM SKC 12/06 A3033

TAF KLAL
Valide du 22 à 12h jusqu'au 23 à 12h UTC


221123Z 2212/2312 01009KT P6SM SKC
FM221800 05011KT P6SM SCT035
FM230300 03007KT P6SM SCT030



MET'MAP, la Météo Aéronautique d'un coup d'oeil ! - Copyright ORBIFLY Décembre 2007 - Disclaimer

ORBIFLY MET'MAP TEAM :

Programmation & Développement : Alexandra Zaïnal
Sur une idée originale de : Baudouin d'Aumeries
Assistance à la programmation : Marc-Olivier Méhu
Soutien technique & logistique : Manuel Goepfert

Contact : metmap@orbifly.com




SOURCES & CREDITS :

   NOAA       Earth
Advisory